Skip Navigation

Christman Field Latest Observations

Switch to metric unitsOther observation timesWeekly graphs

Date Time
MST
Temp
°F
RH
%
DewPt
°F
Wind
mph
Dir
°
Gust
mph
Dir
°
Press
in Hg
Solar
W/m^2
Prec
in
2022-05-19 20:40 43.0 65.7 32.3 9.9 148 13.2 140 24.516 0.2 0.00
2022-05-19 20:35 43.1 65.6 32.4 7.1 158 10.9 130 24.496 0.2 0.00
2022-05-19 20:30 43.4 65.2 32.5 6.6 160 9.7 98 24.495 0.2 0.00
2022-05-19 20:25 43.8 65.1 32.8 9.8 89 14.3 78 24.497 0.2 0.00
2022-05-19 20:20 44.3 63.9 32.8 8.8 82 14.5 87 24.504 0.2 0.00
2022-05-19 20:15 44.2 64.2 32.9 8.7 67 14.7 59 24.498 0.2 0.00
2022-05-19 20:10 44.3 64.2 33.0 8.1 86 12.5 87 24.489 0.2 0.00
2022-05-19 20:05 44.2 63.7 32.7 5.1 117 7.1 124 24.478 0.2 0.00
2022-05-19 20:00 44.1 64.0 32.7 5.6 38 10.0 72 24.461 0.2 0.00
2022-05-19 19:55 44.2 63.8 32.7 5.0 36 7.1 30 24.456 0.2 0.00
2022-05-19 19:50 44.5 63.0 32.7 7.0 40 12.8 63 24.458 0.2 0.00
2022-05-19 19:45 44.8 62.3 32.7 9.9 46 13.7 49 24.461 0.2 0.00
2022-05-19 19:40 45.1 61.5 32.6 11.8 52 16.5 29 24.455 0.2 0.00
2022-05-19 19:35 45.5 60.9 32.8 12.6 15 17.6 55 24.455 0.3 0.00
2022-05-19 19:30 46.1 59.8 32.9 13.8 21 21.3 45 24.461 0.7 0.00
2022-05-19 19:25 46.7 59.1 33.2 11.3 32 15.9 10 24.463 1.1 0.00
2022-05-19 19:20 47.2 58.4 33.3 14.0 25 18.7 28 24.468 1.4 0.00
2022-05-19 19:15 47.5 57.6 33.2 14.6 14 20.6 12 24.475 2.4 0.00
2022-05-19 19:10 47.5 57.6 33.3 13.2 0 18.8 26 24.472 4.6 0.00
2022-05-19 19:05 47.5 57.8 33.4 13.8 356 20.5 23 24.472 8.1 0.00
2022-05-19 19:00 48.0 57.1 33.5 18.5 14 25.7 18 24.470 12.2 0.00
2022-05-19 18:55 48.6 56.4 33.8 17.8 20 22.8 359 24.471 19.5 0.00
2022-05-19 18:50 49.1 56.0 34.1 18.1 354 22.4 347 24.469 21.3 0.00
2022-05-19 18:45 49.6 55.8 34.4 17.2 345 23.8 345 24.468 20.8 0.00
2022-05-19 18:40 50.3 55.1 34.8 15.9 351 20.3 345 24.465 27.7 0.00
2022-05-19 18:35 50.9 54.5 35.1 13.3 352 19.4 3 24.465 34.4 0.00
2022-05-19 18:30 51.3 54.3 35.3 15.0 355 24.4 14 24.463 39.4 0.00
2022-05-19 18:25 51.9 53.5 35.6 18.1 15 25.9 8 24.452 42.7 0.00
2022-05-19 18:20 52.9 53.4 36.4 15.7 6 24.3 356 24.443 48.9 0.00
2022-05-19 18:15 54.1 51.5 36.6 9.9 7 17.2 24 24.442 57.7 0.00